D/T METAR WX W/DIR W/SPE G/SPE TEMP DEWP
19/05/19 21:50 EGNV 192050Z 03002KT 9999 FEW045 11/09 Q1011 NNE (30°) 2.3mph 11°C 9°C
19/05/19 21:20 EGNV 192020Z 07002KT 9999 FEW040 10/09 Q1011 ENE (70°) 2.3mph 10°C 9°C
19/05/19 20:50 EGNV 191950Z VRB02KT 9999 FEW040 12/09 Q1011 N (0°) 2.3mph 12°C 9°C
19/05/19 20:20 EGNV 191920Z VRB02KT 9999 FEW030 12/10 Q1011 N (0°) 2.3mph 12°C 10°C
19/05/19 19:50 EGNV 191850Z 36005KT 9999 FEW030 13/10 Q1011 N (360°) 5.8mph 13°C 10°C
19/05/19 19:20 EGNV 191820Z 36006KT 9999 FEW025 13/10 Q1011 N (360°) 6.9mph 13°C 10°C
19/05/19 18:50 EGNV 191750Z 34005KT 9999 FEW035 SCT048 13/10 Q1010 NNW (340°) 5.8mph 13°C 10°C
19/05/19 18:20 EGNV 191720Z 02005KT 9999 FEW038 SCT044 14/10 Q1010 NNE (20°) 5.8mph 14°C 10°C
19/05/19 17:50 EGNV 191650Z 20003KT 9999 FEW035 15/09 Q1010 SSW (200°) 3.5mph 15°C 9°C
19/05/19 17:20 EGNV 191620Z 18002KT 9999 FEW030 15/09 Q1010 S (180°) 2.3mph 15°C 9°C
19/05/19 16:50 EGNV 191550Z 18003KT 9999 FEW030 15/09 Q1010 S (180°) 3.5mph 15°C 9°C
19/05/19 16:20 EGNV 191520Z 22005KT 9999 FEW025 SCT048 14/09 Q1010 SW (220°) 5.8mph 14°C 9°C
19/05/19 15:50 EGNV 191450Z 20006KT 170V240 9999 FEW015 SCT045 14/10 Q1010 SSW (200°) 6.9mph 14°C 10°C
19/05/19 15:20 EGNV 191420Z 18006KT 9999 FEW025 SCT040 15/09 Q1010 S (180°) 6.9mph 15°C 9°C
19/05/19 14:50 EGNV 191350Z 16006KT 9999 FEW025 SCT040 16/09 Q1010 SSE (160°) 6.9mph 16°C 9°C
19/05/19 14:20 EGNV 191320Z 23005KT 200V260 9999 FEW025 SCT042 16/08 Q1010 SW (230°) 5.8mph 16°C 8°C
19/05/19 13:50 EGNV 191250Z 23006KT 180V290 9999 FEW020 SCT035 16/08 Q1010 SW (230°) 6.9mph 16°C 8°C
19/05/19 13:20 EGNV 191220Z 18004KT 140V240 9999 FEW025 SCT040 15/08 Q1010 S (180°) 4.6mph 15°C 8°C
19/05/19 12:50 EGNV 191150Z 23004KT 140V300 9999 FEW025 SCT040 16/08 Q1010 SW (230°) 4.6mph 16°C 8°C
19/05/19 12:20 EGNV 191120Z 24005KT 200V300 9999 FEW025 SCT040 16/09 Q1010 WSW (240°) 5.8mph 16°C 9°C
19/05/19 11:50 EGNV 191050Z 24005KT 190V290 9999 FEW025 SCT040 16/09 Q1010 WSW (240°) 5.8mph 16°C 9°C
19/05/19 11:20 EGNV 191020Z VRB04KT 9999 SCT025 14/09 Q1010 N (0°) 4.6mph 14°C 9°C
19/05/19 10:50 EGNV 190950Z 23005KT 9999 SCT022 14/09 Q1010 SW (230°) 5.8mph 14°C 9°C
19/05/19 10:20 EGNV 190920Z 25005KT 220V280 9999 SCT019 13/08 Q1010 WSW (250°) 5.8mph 13°C 8°C
19/05/19 09:50 EGNV 190850Z 20004KT 130V280 9999 FEW015 13/09 Q1010 SSW (200°) 4.6mph 13°C 9°C
19/05/19 09:20 EGNV 190820Z 20005KT 170V260 9999 FEW015 12/08 Q1010 SSW (200°) 5.8mph 12°C 8°C
19/05/19 08:50 EGNV 190750Z 20004KT 170V240 9999 FEW015 11/08 Q1010 SSW (200°) 4.6mph 11°C 8°C
19/05/19 08:20 EGNV 190720Z VRB03KT 9999 FEW020 11/08 Q1009 N (0°) 3.5mph 11°C 8°C
19/05/19 07:50 EGNV 190650Z VRB02KT CAVOK 11/08 Q1009 N (0°) 2.3mph 11°C 8°C
19/05/19 07:20 EGNV 190620Z 21003KT 9000 NSC 08/07 Q1009 SSW (210°) 3.5mph 8°C 7°C
19/05/19 06:20 EGNV 190520Z 24005KT 9000 NSC 07/06 Q1009 WSW (240°) 5.8mph 7°C 6°C
18/05/19 21:20 EGNV 182020Z 15001KT 9000 FEW010 BKN049 11/10 Q1008 SSE (150°) 1.2mph 11°C 10°C
18/05/19 20:20 EGNV 181920Z 16002KT 9999 SCT005 BKN045 12/10 Q1008 SSE (160°) 2.3mph 12°C 10°C
18/05/19 19:50 EGNV 181850Z 17003KT 9000 FEW006 BKN045 12/10 Q1007 S (170°) 3.5mph 12°C 10°C
18/05/19 19:20 EGNV 181820Z 15003KT 9000 FEW006 BKN045 12/10 Q1007 SSE (150°) 3.5mph 12°C 10°C
18/05/19 18:50 EGNV 181750Z 14002KT 9000 FEW009 SCT040 12/10 Q1007 SE (140°) 2.3mph 12°C 10°C
18/05/19 18:20 EGNV 181720Z VRB03KT 8000 VCSH FEW010 BKN045 12/10 Q1007 VCSH N (0°) 3.5mph 12°C 10°C
18/05/19 17:50 EGNV 181650Z 03004KT 7000 -RA SCT006 BKN040 12/10 Q1007 -RA NNE (30°) 4.6mph 12°C 10°C
18/05/19 17:20 EGNV 181620Z VRB02KT 7000 VCSH FEW006 BKN035 12/10 Q1007 VCSH N (0°) 2.3mph 12°C 10°C
18/05/19 16:50 EGNV 181550Z 00000KT 6000 VCSH SCT009 BKN030 12/09 Q1007 VCSH N (0°) 12°C 9°C
18/05/19 16:20 EGNV 181520Z VRB03KT 7000 FEW013 BKN036 12/09 Q1007 N (0°) 3.5mph 12°C 9°C
18/05/19 15:50 EGNV 181450Z 33004KT 300V020 9999 FEW010 BKN036 12/09 Q1007 NNW (330°) 4.6mph 12°C 9°C
18/05/19 15:20 EGNV 181420Z VRB02KT 9999 FEW010 SCT020 12/10 Q1007 N (0°) 2.3mph 12°C 10°C
18/05/19 14:50 EGNV 181350Z VRB03KT 9999 FEW012 SCT020 12/09 Q1007 N (0°) 3.5mph 12°C 9°C
18/05/19 14:20 EGNV 181320Z 30004KT 260V330 9999 SCT022 SCT036 12/10 Q1007 WNW (300°) 4.6mph 12°C 10°C
18/05/19 13:50 EGNV 181250Z VRB03KT 9999 7000N FEW006 BKN024 11/10 Q1007 N (0°) 3.5mph 11°C 10°C
18/05/19 13:20 EGNV 181220Z VRB03KT 9999 FEW005 SCT018 BKN030 11/09 Q1007 N (0°) 3.5mph 11°C 9°C
18/05/19 12:50 EGNV 181150Z 33005KT 5000 HZ FEW004 SCT018 BKN025 11/10 Q1007 HZ NNW (330°) 5.8mph 11°C 10°C